sensor_id;sensor_type;location;lat;lon;timestamp;temperature;humidity
56512;DHT22;42408;53.238;5.686;2023-02-11T00:01:34;6.60;99.90
56512;DHT22;42408;53.238;5.686;2023-02-11T00:04:00;7.50;99.90
56512;DHT22;42408;53.238;5.686;2023-02-11T00:06:27;6.60;99.90
56512;DHT22;42408;53.238;5.686;2023-02-11T00:08:53;6.70;99.90
56512;DHT22;42408;53.238;5.686;2023-02-11T00:11:19;6.80;99.90
56512;DHT22;42408;53.238;5.686;2023-02-11T00:13:45;6.70;99.90
56512;DHT22;42408;53.238;5.686;2023-02-11T00:16:15;6.80;99.90
56512;DHT22;42408;53.238;5.686;2023-02-11T00:18:40;7.00;99.90
56512;DHT22;42408;53.238;5.686;2023-02-11T00:21:07;6.80;99.90
56512;DHT22;42408;53.238;5.686;2023-02-11T00:23:33;6.80;99.90
56512;DHT22;42408;53.238;5.686;2023-02-11T00:25:58;6.80;99.90
56512;DHT22;42408;53.238;5.686;2023-02-11T00:28:24;6.90;99.90
56512;DHT22;42408;53.238;5.686;2023-02-11T00:30:53;6.90;99.90
56512;DHT22;42408;53.238;5.686;2023-02-11T00:33:18;6.90;99.90
56512;DHT22;42408;53.238;5.686;2023-02-11T00:35:44;6.90;99.90
56512;DHT22;42408;53.238;5.686;2023-02-11T00:38:09;7.00;99.90
56512;DHT22;42408;53.238;5.686;2023-02-11T00:40:35;7.00;99.90
56512;DHT22;42408;53.238;5.686;2023-02-11T00:43:00;7.10;99.90
56512;DHT22;42408;53.238;5.686;2023-02-11T00:45:26;7.00;99.90
56512;DHT22;42408;53.238;5.686;2023-02-11T00:47:53;7.00;99.90
56512;DHT22;42408;53.238;5.686;2023-02-11T00:50:18;7.10;99.90
56512;DHT22;42408;53.238;5.686;2023-02-11T00:52:44;7.10;99.90
56512;DHT22;42408;53.238;5.686;2023-02-11T00:55:09;7.10;99.90
56512;DHT22;42408;53.238;5.686;2023-02-11T00:57:35;7.10;99.90
56512;DHT22;42408;53.238;5.686;2023-02-11T01:00:00;7.10;99.90
56512;DHT22;42408;53.238;5.686;2023-02-11T01:02:26;7.10;99.90
56512;DHT22;42408;53.238;5.686;2023-02-11T01:04:51;7.10;99.90
56512;DHT22;42408;53.238;5.686;2023-02-11T01:07:17;7.20;99.90
56512;DHT22;42408;53.238;5.686;2023-02-11T01:09:43;8.10;99.90
56512;DHT22;42408;53.238;5.686;2023-02-11T01:12:08;7.20;99.90
56512;DHT22;42408;53.238;5.686;2023-02-11T01:14:34;7.20;99.90
56512;DHT22;42408;53.238;5.686;2023-02-11T01:16:59;8.20;99.90
56512;DHT22;42408;53.238;5.686;2023-02-11T01:19:25;7.30;99.90
56512;DHT22;42408;53.238;5.686;2023-02-11T01:21:50;7.30;99.90
56512;DHT22;42408;53.238;5.686;2023-02-11T01:24:16;7.30;99.90
56512;DHT22;42408;53.238;5.686;2023-02-11T01:26:41;7.70;99.90
56512;DHT22;42408;53.238;5.686;2023-02-11T01:29:07;7.30;99.90
56512;DHT22;42408;53.238;5.686;2023-02-11T01:31:33;7.40;99.90
56512;DHT22;42408;53.238;5.686;2023-02-11T01:33:59;7.40;99.90
56512;DHT22;42408;53.238;5.686;2023-02-11T01:36:25;7.30;99.90
56512;DHT22;42408;53.238;5.686;2023-02-11T01:38:50;7.60;99.90
56512;DHT22;42408;53.238;5.686;2023-02-11T01:41:16;7.40;99.90
56512;DHT22;42408;53.238;5.686;2023-02-11T01:43:43;7.40;99.90
56512;DHT22;42408;53.238;5.686;2023-02-11T01:48:57;7.40;99.90
56512;DHT22;42408;53.238;5.686;2023-02-11T01:51:24;7.40;99.90
56512;DHT22;42408;53.238;5.686;2023-02-11T01:53:51;7.40;99.90
56512;DHT22;42408;53.238;5.686;2023-02-11T01:56:36;7.40;99.90
56512;DHT22;42408;53.238;5.686;2023-02-11T01:59:22;7.40;99.90
56512;DHT22;42408;53.238;5.686;2023-02-11T02:01:51;7.40;99.90
56512;DHT22;42408;53.238;5.686;2023-02-11T02:04:18;7.60;99.90
56512;DHT22;42408;53.238;5.686;2023-02-11T02:06:48;7.50;99.90
56512;DHT22;42408;53.238;5.686;2023-02-11T02:09:16;7.40;99.90
56512;DHT22;42408;53.238;5.686;2023-02-11T02:11:44;7.40;99.90
56512;DHT22;42408;53.238;5.686;2023-02-11T02:14:09;7.50;99.90
56512;DHT22;42408;53.238;5.686;2023-02-11T02:16:35;7.50;99.90
56512;DHT22;42408;53.238;5.686;2023-02-11T02:19:22;7.50;99.90
56512;DHT22;42408;53.238;5.686;2023-02-11T02:27:18;7.50;99.90
56512;DHT22;42408;53.238;5.686;2023-02-11T02:29:58;7.50;99.90
56512;DHT22;42408;53.238;5.686;2023-02-11T02:34:57;7.50;99.90
56512;DHT22;42408;53.238;5.686;2023-02-11T02:40:14;7.50;99.90
56512;DHT22;42408;53.238;5.686;2023-02-11T02:42:41;7.50;99.90
56512;DHT22;42408;53.238;5.686;2023-02-11T02:45:08;7.60;99.90
56512;DHT22;42408;53.238;5.686;2023-02-11T02:47:34;7.50;99.90
56512;DHT22;42408;53.238;5.686;2023-02-11T02:50:00;7.60;99.90
56512;DHT22;42408;53.238;5.686;2023-02-11T02:57:42;7.60;99.90
56512;DHT22;42408;53.238;5.686;2023-02-11T03:00:15;7.60;99.90
56512;DHT22;42408;53.238;5.686;2023-02-11T03:05:20;7.60;99.90
56512;DHT22;42408;53.238;5.686;2023-02-11T03:12:44;7.70;99.90
56512;DHT22;42408;53.238;5.686;2023-02-11T03:15:11;8.30;99.90
56512;DHT22;42408;53.238;5.686;2023-02-11T03:17:38;7.70;99.90
56512;DHT22;42408;53.238;5.686;2023-02-11T03:20:05;8.40;99.90
56512;DHT22;42408;53.238;5.686;2023-02-11T03:22:36;7.70;99.90
56512;DHT22;42408;53.238;5.686;2023-02-11T03:25:03;7.60;99.90
56512;DHT22;42408;53.238;5.686;2023-02-11T03:30:04;7.70;99.90
56512;DHT22;42408;53.238;5.686;2023-02-11T03:32:32;7.70;99.90
56512;DHT22;42408;53.238;5.686;2023-02-11T03:35:05;7.70;99.90
56512;DHT22;42408;53.238;5.686;2023-02-11T03:37:36;7.70;99.90
56512;DHT22;42408;53.238;5.686;2023-02-11T03:40:09;7.70;99.90
56512;DHT22;42408;53.238;5.686;2023-02-11T03:42:37;7.70;99.90
56512;DHT22;42408;53.238;5.686;2023-02-11T03:45:05;8.00;99.90
56512;DHT22;42408;53.238;5.686;2023-02-11T03:47:33;7.80;99.90
56512;DHT22;42408;53.238;5.686;2023-02-11T03:49:59;7.80;99.90
56512;DHT22;42408;53.238;5.686;2023-02-11T03:52:27;7.80;99.90
56512;DHT22;42408;53.238;5.686;2023-02-11T03:54:54;7.80;99.90
56512;DHT22;42408;53.238;5.686;2023-02-11T03:57:21;7.80;99.90
56512;DHT22;42408;53.238;5.686;2023-02-11T03:59:56;7.80;99.90
56512;DHT22;42408;53.238;5.686;2023-02-11T04:02:22;7.80;99.90
56512;DHT22;42408;53.238;5.686;2023-02-11T04:04:49;7.90;99.90
56512;DHT22;42408;53.238;5.686;2023-02-11T04:07:15;7.90;99.90
56512;DHT22;42408;53.238;5.686;2023-02-11T04:09:40;8.30;99.90
56512;DHT22;42408;53.238;5.686;2023-02-11T04:12:06;7.90;99.90
56512;DHT22;42408;53.238;5.686;2023-02-11T04:14:32;7.90;99.90
56512;DHT22;42408;53.238;5.686;2023-02-11T04:16:57;7.90;99.90
56512;DHT22;42408;53.238;5.686;2023-02-11T04:19:23;7.90;99.90
56512;DHT22;42408;53.238;5.686;2023-02-11T04:21:48;8.00;99.90
56512;DHT22;42408;53.238;5.686;2023-02-11T04:24:14;8.00;99.90
56512;DHT22;42408;53.238;5.686;2023-02-11T04:26:39;8.60;99.90
56512;DHT22;42408;53.238;5.686;2023-02-11T04:29:05;7.90;99.90
56512;DHT22;42408;53.238;5.686;2023-02-11T04:31:31;8.00;99.90
56512;DHT22;42408;53.238;5.686;2023-02-11T04:33:56;8.00;99.90
56512;DHT22;42408;53.238;5.686;2023-02-11T04:36:22;8.00;99.90
56512;DHT22;42408;53.238;5.686;2023-02-11T04:38:47;8.00;99.90
56512;DHT22;42408;53.238;5.686;2023-02-11T04:41:13;8.00;99.90
56512;DHT22;42408;53.238;5.686;2023-02-11T04:43:38;8.10;99.90
56512;DHT22;42408;53.238;5.686;2023-02-11T04:46:04;8.10;99.90
56512;DHT22;42408;53.238;5.686;2023-02-11T04:48:29;8.10;99.90
56512;DHT22;42408;53.238;5.686;2023-02-11T04:50:55;8.10;99.90
56512;DHT22;42408;53.238;5.686;2023-02-11T04:53:20;8.10;99.90
56512;DHT22;42408;53.238;5.686;2023-02-11T04:55:49;8.10;99.90
56512;DHT22;42408;53.238;5.686;2023-02-11T04:58:15;8.10;99.90
56512;DHT22;42408;53.238;5.686;2023-02-11T05:00:40;8.30;99.90
56512;DHT22;42408;53.238;5.686;2023-02-11T05:03:06;8.10;99.90
56512;DHT22;42408;53.238;5.686;2023-02-11T05:05:31;8.10;99.90
56512;DHT22;42408;53.238;5.686;2023-02-11T05:07:57;8.10;99.90
56512;DHT22;42408;53.238;5.686;2023-02-11T05:10:22;8.10;99.90
56512;DHT22;42408;53.238;5.686;2023-02-11T05:12:48;8.10;99.90
56512;DHT22;42408;53.238;5.686;2023-02-11T05:15:14;8.10;99.90
56512;DHT22;42408;53.238;5.686;2023-02-11T05:17:39;8.10;99.90
56512;DHT22;42408;53.238;5.686;2023-02-11T05:20:05;8.10;99.90
56512;DHT22;42408;53.238;5.686;2023-02-11T05:22:31;8.10;99.90
56512;DHT22;42408;53.238;5.686;2023-02-11T05:24:56;8.10;99.90
56512;DHT22;42408;53.238;5.686;2023-02-11T05:27:22;8.10;99.90
56512;DHT22;42408;53.238;5.686;2023-02-11T05:29:47;8.10;99.90
56512;DHT22;42408;53.238;5.686;2023-02-11T05:32:13;8.00;99.90
56512;DHT22;42408;53.238;5.686;2023-02-11T05:34:38;8.10;99.90
56512;DHT22;42408;53.238;5.686;2023-02-11T05:37:04;8.10;99.90
56512;DHT22;42408;53.238;5.686;2023-02-11T05:39:29;8.00;99.90
56512;DHT22;42408;53.238;5.686;2023-02-11T05:41:55;8.00;99.90
56512;DHT22;42408;53.238;5.686;2023-02-11T05:44:20;8.00;99.90
56512;DHT22;42408;53.238;5.686;2023-02-11T05:46:46;8.00;99.90
56512;DHT22;42408;53.238;5.686;2023-02-11T05:49:13;7.90;99.90
56512;DHT22;42408;53.238;5.686;2023-02-11T05:51:39;7.90;99.90
56512;DHT22;42408;53.238;5.686;2023-02-11T05:54:04;7.80;99.90
56512;DHT22;42408;53.238;5.686;2023-02-11T05:56:30;7.80;99.90
56512;DHT22;42408;53.238;5.686;2023-02-11T05:58:57;7.80;99.90
56512;DHT22;42408;53.238;5.686;2023-02-11T06:01:22;7.70;99.90
56512;DHT22;42408;53.238;5.686;2023-02-11T06:03:48;7.80;99.90
56512;DHT22;42408;53.238;5.686;2023-02-11T06:06:15;7.70;99.90
56512;DHT22;42408;53.238;5.686;2023-02-11T06:08:41;7.70;99.90
56512;DHT22;42408;53.238;5.686;2023-02-11T06:11:07;7.70;99.90
56512;DHT22;42408;53.238;5.686;2023-02-11T06:13:33;7.70;99.90
56512;DHT22;42408;53.238;5.686;2023-02-11T06:15:59;7.70;99.90
56512;DHT22;42408;53.238;5.686;2023-02-11T06:18:25;7.70;99.90
56512;DHT22;42408;53.238;5.686;2023-02-11T06:20:51;7.70;99.90
56512;DHT22;42408;53.238;5.686;2023-02-11T06:23:16;8.20;99.90
56512;DHT22;42408;53.238;5.686;2023-02-11T06:25:42;7.70;99.90
56512;DHT22;42408;53.238;5.686;2023-02-11T06:28:07;7.60;99.90
56512;DHT22;42408;53.238;5.686;2023-02-11T06:30:35;7.60;99.90
56512;DHT22;42408;53.238;5.686;2023-02-11T06:33:00;7.60;99.90
56512;DHT22;42408;53.238;5.686;2023-02-11T06:35:26;7.70;99.90
56512;DHT22;42408;53.238;5.686;2023-02-11T06:37:51;7.70;99.90
56512;DHT22;42408;53.238;5.686;2023-02-11T06:40:18;7.70;99.90
56512;DHT22;42408;53.238;5.686;2023-02-11T06:42:43;7.70;99.90
56512;DHT22;42408;53.238;5.686;2023-02-11T06:45:09;7.70;99.90
56512;DHT22;42408;53.238;5.686;2023-02-11T06:47:35;7.70;99.90
56512;DHT22;42408;53.238;5.686;2023-02-11T06:50:01;7.70;99.90
56512;DHT22;42408;53.238;5.686;2023-02-11T06:52:26;7.90;99.90
56512;DHT22;42408;53.238;5.686;2023-02-11T06:54:52;7.60;99.90
56512;DHT22;42408;53.238;5.686;2023-02-11T06:57:17;7.70;99.90
56512;DHT22;42408;53.238;5.686;2023-02-11T06:59:43;7.70;99.90
56512;DHT22;42408;53.238;5.686;2023-02-11T07:02:09;7.70;99.90
56512;DHT22;42408;53.238;5.686;2023-02-11T07:04:34;7.80;99.90
56512;DHT22;42408;53.238;5.686;2023-02-11T07:07:00;7.60;99.90
56512;DHT22;42408;53.238;5.686;2023-02-11T07:09:25;7.60;99.90
56512;DHT22;42408;53.238;5.686;2023-02-11T07:11:51;7.60;99.90
56512;DHT22;42408;53.238;5.686;2023-02-11T07:14:16;7.60;99.90
56512;DHT22;42408;53.238;5.686;2023-02-11T07:16:42;7.50;99.90
56512;DHT22;42408;53.238;5.686;2023-02-11T07:19:07;7.60;99.90
56512;DHT22;42408;53.238;5.686;2023-02-11T07:21:33;7.60;99.90
56512;DHT22;42408;53.238;5.686;2023-02-11T07:23:59;7.50;99.90
56512;DHT22;42408;53.238;5.686;2023-02-11T07:26:24;7.80;99.90
56512;DHT22;42408;53.238;5.686;2023-02-11T07:28:50;7.50;99.90
56512;DHT22;42408;53.238;5.686;2023-02-11T07:31:17;7.90;99.90
56512;DHT22;42408;53.238;5.686;2023-02-11T07:33:43;7.50;99.90
56512;DHT22;42408;53.238;5.686;2023-02-11T07:36:10;7.50;99.90
56512;DHT22;42408;53.238;5.686;2023-02-11T07:38:36;7.50;99.90
56512;DHT22;42408;53.238;5.686;2023-02-11T07:41:05;7.50;99.90
56512;DHT22;42408;53.238;5.686;2023-02-11T07:43:31;7.50;99.90
56512;DHT22;42408;53.238;5.686;2023-02-11T07:45:57;7.50;99.90
56512;DHT22;42408;53.238;5.686;2023-02-11T07:48:22;7.60;99.90
56512;DHT22;42408;53.238;5.686;2023-02-11T07:50:48;8.20;99.90
56512;DHT22;42408;53.238;5.686;2023-02-11T07:53:14;7.50;99.90
56512;DHT22;42408;53.238;5.686;2023-02-11T07:55:39;7.70;99.90
56512;DHT22;42408;53.238;5.686;2023-02-11T07:58:06;7.70;99.90
56512;DHT22;42408;53.238;5.686;2023-02-11T08:00:32;7.70;99.90
56512;DHT22;42408;53.238;5.686;2023-02-11T08:02:57;7.80;99.90
56512;DHT22;42408;53.238;5.686;2023-02-11T08:05:23;7.80;99.90
56512;DHT22;42408;53.238;5.686;2023-02-11T08:07:52;7.80;99.90
56512;DHT22;42408;53.238;5.686;2023-02-11T08:10:17;7.80;99.90
56512;DHT22;42408;53.238;5.686;2023-02-11T08:12:43;7.90;99.90
56512;DHT22;42408;53.238;5.686;2023-02-11T08:15:08;7.90;99.90
56512;DHT22;42408;53.238;5.686;2023-02-11T08:17:34;7.80;99.90
56512;DHT22;42408;53.238;5.686;2023-02-11T08:20:00;7.90;99.90
56512;DHT22;42408;53.238;5.686;2023-02-11T08:22:25;8.00;99.90
56512;DHT22;42408;53.238;5.686;2023-02-11T08:24:51;7.90;99.90
56512;DHT22;42408;53.238;5.686;2023-02-11T08:27:16;8.00;99.90
56512;DHT22;42408;53.238;5.686;2023-02-11T08:29:42;8.00;99.90
56512;DHT22;42408;53.238;5.686;2023-02-11T08:32:07;8.10;99.90
56512;DHT22;42408;53.238;5.686;2023-02-11T08:34:33;8.10;99.90
56512;DHT22;42408;53.238;5.686;2023-02-11T08:36:58;8.10;99.90
56512;DHT22;42408;53.238;5.686;2023-02-11T08:39:24;8.10;99.90
56512;DHT22;42408;53.238;5.686;2023-02-11T08:41:51;8.20;99.90
56512;DHT22;42408;53.238;5.686;2023-02-11T08:44:17;8.20;99.90
56512;DHT22;42408;53.238;5.686;2023-02-11T08:46:43;8.20;99.90
56512;DHT22;42408;53.238;5.686;2023-02-11T08:49:08;8.30;99.90
56512;DHT22;42408;53.238;5.686;2023-02-11T08:51:34;8.40;99.90
56512;DHT22;42408;53.238;5.686;2023-02-11T08:53:59;8.40;99.90
56512;DHT22;42408;53.238;5.686;2023-02-11T08:56:25;8.40;99.90
56512;DHT22;42408;53.238;5.686;2023-02-11T08:58:51;8.50;99.90
56512;DHT22;42408;53.238;5.686;2023-02-11T09:01:22;8.50;99.90
56512;DHT22;42408;53.238;5.686;2023-02-11T09:03:48;8.60;99.90
56512;DHT22;42408;53.238;5.686;2023-02-11T09:06:13;8.60;99.90
56512;DHT22;42408;53.238;5.686;2023-02-11T09:08:40;8.70;99.90
56512;DHT22;42408;53.238;5.686;2023-02-11T09:11:06;8.70;99.90
56512;DHT22;42408;53.238;5.686;2023-02-11T09:13:32;8.70;99.90
56512;DHT22;42408;53.238;5.686;2023-02-11T09:15:58;8.80;99.90
56512;DHT22;42408;53.238;5.686;2023-02-11T09:18:24;8.80;99.90
56512;DHT22;42408;53.238;5.686;2023-02-11T09:20:50;8.80;99.90
56512;DHT22;42408;53.238;5.686;2023-02-11T09:23:15;8.90;99.90
56512;DHT22;42408;53.238;5.686;2023-02-11T09:25:41;8.90;99.90
56512;DHT22;42408;53.238;5.686;2023-02-11T09:28:07;8.90;99.90
56512;DHT22;42408;53.238;5.686;2023-02-11T09:30:33;8.90;99.90
56512;DHT22;42408;53.238;5.686;2023-02-11T09:32:59;8.90;99.90
56512;DHT22;42408;53.238;5.686;2023-02-11T09:35:24;8.90;99.90
56512;DHT22;42408;53.238;5.686;2023-02-11T09:37:50;9.00;99.90
56512;DHT22;42408;53.238;5.686;2023-02-11T09:40:15;9.00;99.90
56512;DHT22;42408;53.238;5.686;2023-02-11T09:45:23;9.10;99.90
56512;DHT22;42408;53.238;5.686;2023-02-11T09:50:26;9.10;99.90
56512;DHT22;42408;53.238;5.686;2023-02-11T09:52:57;9.20;99.90
56512;DHT22;42408;53.238;5.686;2023-02-11T09:55:32;9.20;99.90
56512;DHT22;42408;53.238;5.686;2023-02-11T09:58:09;9.30;99.90
56512;DHT22;42408;53.238;5.686;2023-02-11T10:00:37;9.30;99.90
56512;DHT22;42408;53.238;5.686;2023-02-11T10:10:53;9.40;99.90
56512;DHT22;42408;53.238;5.686;2023-02-11T10:23:32;9.60;99.90
56512;DHT22;42408;53.238;5.686;2023-02-11T10:25:59;9.60;99.90
56512;DHT22;42408;53.238;5.686;2023-02-11T10:28:29;9.60;99.90
56512;DHT22;42408;53.238;5.686;2023-02-11T10:35:49;9.60;99.90
56512;DHT22;42408;53.238;5.686;2023-02-11T10:38:14;9.70;99.90
56512;DHT22;42408;53.238;5.686;2023-02-11T10:40:40;9.80;99.90
56512;DHT22;42408;53.238;5.686;2023-02-11T10:43:06;9.80;99.90
56512;DHT22;42408;53.238;5.686;2023-02-11T10:45:41;9.90;99.90
56512;DHT22;42408;53.238;5.686;2023-02-11T10:51:03;10.10;99.90
56512;DHT22;42408;53.238;5.686;2023-02-11T10:53:31;10.20;99.90
56512;DHT22;42408;53.238;5.686;2023-02-11T10:55:57;10.20;99.90
56512;DHT22;42408;53.238;5.686;2023-02-11T10:58:45;10.30;99.90
56512;DHT22;42408;53.238;5.686;2023-02-11T11:01:09;10.40;99.90
56512;DHT22;42408;53.238;5.686;2023-02-11T11:03:36;10.40;99.90
56512;DHT22;42408;53.238;5.686;2023-02-11T11:06:04;10.50;99.90
56512;DHT22;42408;53.238;5.686;2023-02-11T11:11:03;10.70;99.90
56512;DHT22;42408;53.238;5.686;2023-02-11T11:13:30;10.70;99.90
56512;DHT22;42408;53.238;5.686;2023-02-11T11:18:40;10.90;99.90
56512;DHT22;42408;53.238;5.686;2023-02-11T11:21:10;10.90;99.90
56512;DHT22;42408;53.238;5.686;2023-02-11T11:23:36;10.90;99.90
56512;DHT22;42408;53.238;5.686;2023-02-11T11:26:04;11.10;99.90
56512;DHT22;42408;53.238;5.686;2023-02-11T11:28:31;11.10;99.90
56512;DHT22;42408;53.238;5.686;2023-02-11T11:30:57;11.20;99.90
56512;DHT22;42408;53.238;5.686;2023-02-11T11:36:13;11.20;99.90
56512;DHT22;42408;53.238;5.686;2023-02-11T11:38:42;11.20;99.90
56512;DHT22;42408;53.238;5.686;2023-02-11T11:43:39;11.10;99.90
56512;DHT22;42408;53.238;5.686;2023-02-11T11:46:04;11.10;99.90
56512;DHT22;42408;53.238;5.686;2023-02-11T11:48:37;11.10;99.90
56512;DHT22;42408;53.238;5.686;2023-02-11T11:51:05;11.20;99.90
56512;DHT22;42408;53.238;5.686;2023-02-11T11:53:36;11.20;99.90
56512;DHT22;42408;53.238;5.686;2023-02-11T11:56:02;11.30;99.90
56512;DHT22;42408;53.238;5.686;2023-02-11T11:58:29;11.40;99.90
56512;DHT22;42408;53.238;5.686;2023-02-11T12:00:58;11.50;99.90
56512;DHT22;42408;53.238;5.686;2023-02-11T12:06:14;11.60;99.90
56512;DHT22;42408;53.238;5.686;2023-02-11T12:08:47;11.70;99.90
56512;DHT22;42408;53.238;5.686;2023-02-11T12:14:06;11.70;99.90
56512;DHT22;42408;53.238;5.686;2023-02-11T12:16:52;11.80;99.90
56512;DHT22;42408;53.238;5.686;2023-02-11T12:19:34;11.80;99.90
56512;DHT22;42408;53.238;5.686;2023-02-11T12:22:23;11.80;99.90
56512;DHT22;42408;53.238;5.686;2023-02-11T12:30:15;11.70;99.90
56512;DHT22;42408;53.238;5.686;2023-02-11T12:43:38;11.40;99.90
56512;DHT22;42408;53.238;5.686;2023-02-11T12:46:27;11.40;99.90
56512;DHT22;42408;53.238;5.686;2023-02-11T12:54:13;11.50;99.90
56512;DHT22;42408;53.238;5.686;2023-02-11T12:59:20;11.70;99.90
56512;DHT22;42408;53.238;5.686;2023-02-11T13:01:46;11.80;99.90
56512;DHT22;42408;53.238;5.686;2023-02-11T13:04:22;11.80;99.90
56512;DHT22;42408;53.238;5.686;2023-02-11T13:06:54;11.80;99.90
56512;DHT22;42408;53.238;5.686;2023-02-11T13:09:22;11.90;99.90
56512;DHT22;42408;53.238;5.686;2023-02-11T13:11:50;11.90;99.90
56512;DHT22;42408;53.238;5.686;2023-02-11T13:14:30;11.90;99.90
56512;DHT22;42408;53.238;5.686;2023-02-11T13:16:59;11.90;99.90
56512;DHT22;42408;53.238;5.686;2023-02-11T13:29:48;11.70;99.90
56512;DHT22;42408;53.238;5.686;2023-02-11T13:32:20;11.70;99.90
56512;DHT22;42408;53.238;5.686;2023-02-11T13:39:42;11.70;99.90
56512;DHT22;42408;53.238;5.686;2023-02-11T13:42:19;11.70;99.90
56512;DHT22;42408;53.238;5.686;2023-02-11T13:44:46;11.70;99.90
56512;DHT22;42408;53.238;5.686;2023-02-11T13:47:21;11.80;99.90
56512;DHT22;42408;53.238;5.686;2023-02-11T13:49:49;11.80;99.90
56512;DHT22;42408;53.238;5.686;2023-02-11T13:54:45;11.80;99.90
56512;DHT22;42408;53.238;5.686;2023-02-11T13:57:22;11.80;99.90
56512;DHT22;42408;53.238;5.686;2023-02-11T13:59:54;11.70;99.90
56512;DHT22;42408;53.238;5.686;2023-02-11T14:11:07;11.60;99.90
56512;DHT22;42408;53.238;5.686;2023-02-11T14:16:28;11.40;99.90
56512;DHT22;42408;53.238;5.686;2023-02-11T14:23:52;11.40;99.90
56512;DHT22;42408;53.238;5.686;2023-02-11T14:27:19;11.40;99.90
56512;DHT22;42408;53.238;5.686;2023-02-11T14:42:40;10.90;99.90
56512;DHT22;42408;53.238;5.686;2023-02-11T14:45:09;10.90;99.90
56512;DHT22;42408;53.238;5.686;2023-02-11T14:47:42;10.80;99.90
56512;DHT22;42408;53.238;5.686;2023-02-11T14:50:18;10.70;99.90
56512;DHT22;42408;53.238;5.686;2023-02-11T14:52:45;10.60;99.90
56512;DHT22;42408;53.238;5.686;2023-02-11T14:55:24;10.50;99.90
56512;DHT22;42408;53.238;5.686;2023-02-11T14:58:10;10.50;99.90
56512;DHT22;42408;53.238;5.686;2023-02-11T15:00:45;10.40;99.90
56512;DHT22;42408;53.238;5.686;2023-02-11T15:03:23;10.30;99.90
56512;DHT22;42408;53.238;5.686;2023-02-11T15:05:52;10.30;99.90
56512;DHT22;42408;53.238;5.686;2023-02-11T15:08:18;10.20;99.90
56512;DHT22;42408;53.238;5.686;2023-02-11T15:10:44;10.10;99.90
56512;DHT22;42408;53.238;5.686;2023-02-11T15:13:17;10.10;99.90
56512;DHT22;42408;53.238;5.686;2023-02-11T15:15:44;10.00;99.90
56512;DHT22;42408;53.238;5.686;2023-02-11T15:18:17;10.00;99.90
56512;DHT22;42408;53.238;5.686;2023-02-11T15:20:45;10.00;99.90
56512;DHT22;42408;53.238;5.686;2023-02-11T15:23:13;10.00;99.90
56512;DHT22;42408;53.238;5.686;2023-02-11T15:25:42;10.00;99.90
56512;DHT22;42408;53.238;5.686;2023-02-11T15:28:29;9.90;99.90
56512;DHT22;42408;53.238;5.686;2023-02-11T15:31:04;9.90;99.90
56512;DHT22;42408;53.238;5.686;2023-02-11T15:33:30;9.80;99.90
56512;DHT22;42408;53.238;5.686;2023-02-11T15:36:00;9.80;99.90
56512;DHT22;42408;53.238;5.686;2023-02-11T15:38:26;9.80;99.90
56512;DHT22;42408;53.238;5.686;2023-02-11T15:40:59;9.70;99.90
56512;DHT22;42408;53.238;5.686;2023-02-11T15:46:12;9.70;99.90
56512;DHT22;42408;53.238;5.686;2023-02-11T15:48:46;9.60;99.90
56512;DHT22;42408;53.238;5.686;2023-02-11T15:51:20;9.50;99.90
56512;DHT22;42408;53.238;5.686;2023-02-11T15:53:47;9.40;99.90
56512;DHT22;42408;53.238;5.686;2023-02-11T15:58:59;9.40;99.90
56512;DHT22;42408;53.238;5.686;2023-02-11T16:01:33;9.30;99.90
56512;DHT22;42408;53.238;5.686;2023-02-11T16:03:58;9.20;99.90
56512;DHT22;42408;53.238;5.686;2023-02-11T16:06:26;9.20;99.90
56512;DHT22;42408;53.238;5.686;2023-02-11T16:11:34;9.10;99.90
56512;DHT22;42408;53.238;5.686;2023-02-11T16:14:00;9.00;99.90
56512;DHT22;42408;53.238;5.686;2023-02-11T16:16:26;9.00;99.90
56512;DHT22;42408;53.238;5.686;2023-02-11T16:18:53;8.90;99.90
56512;DHT22;42408;53.238;5.686;2023-02-11T16:21:20;8.90;99.90
56512;DHT22;42408;53.238;5.686;2023-02-11T16:23:52;8.90;99.90
56512;DHT22;42408;53.238;5.686;2023-02-11T16:26:20;8.80;99.90
56512;DHT22;42408;53.238;5.686;2023-02-11T16:28:46;8.90;99.90
56512;DHT22;42408;53.238;5.686;2023-02-11T16:31:12;8.70;99.90
56512;DHT22;42408;53.238;5.686;2023-02-11T16:33:37;8.60;99.90
56512;DHT22;42408;53.238;5.686;2023-02-11T16:36:13;8.60;99.90
56512;DHT22;42408;53.238;5.686;2023-02-11T16:38:39;8.60;99.90
56512;DHT22;42408;53.238;5.686;2023-02-11T16:41:04;8.60;99.90
56512;DHT22;42408;53.238;5.686;2023-02-11T16:43:30;8.50;99.90
56512;DHT22;42408;53.238;5.686;2023-02-11T16:45:56;8.50;99.90
56512;DHT22;42408;53.238;5.686;2023-02-11T16:48:22;8.70;99.90
56512;DHT22;42408;53.238;5.686;2023-02-11T16:50:48;9.00;99.90
56512;DHT22;42408;53.238;5.686;2023-02-11T16:53:21;8.30;99.90
56512;DHT22;42408;53.238;5.686;2023-02-11T16:55:47;8.30;99.90
56512;DHT22;42408;53.238;5.686;2023-02-11T16:58:12;8.20;99.90
56512;DHT22;42408;53.238;5.686;2023-02-11T17:00:38;8.20;99.90
56512;DHT22;42408;53.238;5.686;2023-02-11T17:03:09;8.20;99.90
56512;DHT22;42408;53.238;5.686;2023-02-11T17:05:39;8.10;99.90
56512;DHT22;42408;53.238;5.686;2023-02-11T17:08:04;8.10;99.90
56512;DHT22;42408;53.238;5.686;2023-02-11T17:10:30;8.10;99.90
56512;DHT22;42408;53.238;5.686;2023-02-11T17:12:56;8.00;99.90
56512;DHT22;42408;53.238;5.686;2023-02-11T17:15:22;8.00;99.90
56512;DHT22;42408;53.238;5.686;2023-02-11T17:17:47;8.00;99.90
56512;DHT22;42408;53.238;5.686;2023-02-11T17:20:13;7.90;99.90
56512;DHT22;42408;53.238;5.686;2023-02-11T17:22:39;7.90;99.90
56512;DHT22;42408;53.238;5.686;2023-02-11T17:25:04;7.80;99.90
56512;DHT22;42408;53.238;5.686;2023-02-11T17:27:30;7.80;99.90
56512;DHT22;42408;53.238;5.686;2023-02-11T17:29:56;7.80;99.90
56512;DHT22;42408;53.238;5.686;2023-02-11T17:32:21;7.70;99.90
56512;DHT22;42408;53.238;5.686;2023-02-11T17:34:47;7.70;99.90
56512;DHT22;42408;53.238;5.686;2023-02-11T17:37:12;7.70;99.90
56512;DHT22;42408;53.238;5.686;2023-02-11T17:39:38;7.70;99.90
56512;DHT22;42408;53.238;5.686;2023-02-11T17:42:04;8.50;99.90
56512;DHT22;42408;53.238;5.686;2023-02-11T17:44:31;7.60;99.90
56512;DHT22;42408;53.238;5.686;2023-02-11T17:46:56;7.60;99.90
56512;DHT22;42408;53.238;5.686;2023-02-11T17:49:22;7.50;99.90
56512;DHT22;42408;53.238;5.686;2023-02-11T17:51:48;7.50;99.90
56512;DHT22;42408;53.238;5.686;2023-02-11T17:54:14;7.50;99.90
56512;DHT22;42408;53.238;5.686;2023-02-11T17:56:41;7.50;99.90
56512;DHT22;42408;53.238;5.686;2023-02-11T17:59:07;7.50;99.90
56512;DHT22;42408;53.238;5.686;2023-02-11T18:01:34;7.40;99.90
56512;DHT22;42408;53.238;5.686;2023-02-11T18:04:00;7.40;99.90
56512;DHT22;42408;53.238;5.686;2023-02-11T18:06:26;7.40;99.90
56512;DHT22;42408;53.238;5.686;2023-02-11T18:08:53;7.30;99.90
56512;DHT22;42408;53.238;5.686;2023-02-11T18:11:21;7.30;99.90
56512;DHT22;42408;53.238;5.686;2023-02-11T18:13:49;7.30;99.90
56512;DHT22;42408;53.238;5.686;2023-02-11T18:16:22;7.30;99.90
56512;DHT22;42408;53.238;5.686;2023-02-11T18:18:48;7.20;99.90
56512;DHT22;42408;53.238;5.686;2023-02-11T18:21:14;7.20;99.90